Time;durP1;ratioP1;P1;durP2;ratioP2;P2;SDS_P1;SDS_P2;PMS_P1;PMS_P2;Temp;Humidity;BMP_temperature;BMP_pressure;BME280_temperature;BME280_humidity;BME280_pressure;Samples;Min_cycle;Max_cycle;Signal;HPM_P1;HPM_P2
2022/09/21 00:01:26;;;;;;;;;;;6.10;99.90;;;;;;5028977;28;20297;-63
2022/09/21 00:03:56;;;;;;;;;;;5.90;99.90;;;;;;5031495;28;19913;-63
2022/09/21 00:06:22;;;;;;;;;;;5.80;99.90;;;;;;5026525;28;20429;-63
2022/09/21 00:08:48;;;;;;;;;;;5.90;99.90;;;;;;5026492;28;20329;-64
2022/09/21 00:11:14;;;;;;;;;;;5.90;99.90;;;;;;5027195;28;19971;-63
2022/09/21 00:13:40;;;;;;;;;;;5.90;99.90;;;;;;5029373;28;19920;-64
2022/09/21 00:16:06;;;;;;;;;;;5.90;99.90;;;;;;5032848;28;19909;-63
2022/09/21 00:18:32;;;;;;;;;;;6.20;99.90;;;;;;5025403;28;20246;-63
2022/09/21 00:20:58;;;;;;;;;;;6.30;99.90;;;;;;5038572;28;19909;-63
2022/09/21 00:23:23;;;;;;;;;;;6.30;99.90;;;;;;5035320;28;19920;-63
2022/09/21 00:25:49;;;;;;;;;;;6.20;99.90;;;;;;5033901;28;19947;-63
2022/09/21 00:28:14;;;;;;;;;;;6.10;99.90;;;;;;5030254;28;19913;-63
2022/09/21 00:30:40;;;;;;;;;;;5.90;99.90;;;;;;5036513;28;19935;-63
2022/09/21 00:33:05;;;;;;;;;;;5.90;99.90;;;;;;5036240;28;19910;-63
2022/09/21 00:35:32;;;;;;;;;;;5.90;99.90;;;;;;5029506;28;19913;-63
2022/09/21 00:38:01;;;;;;;;;;;5.80;99.90;;;;;;5033018;28;20012;-64
2022/09/21 00:40:26;;;;;;;;;;;5.70;99.90;;;;;;5022189;28;19913;-63
2022/09/21 00:42:52;;;;;;;;;;;5.60;99.90;;;;;;5033430;28;19916;-63
2022/09/21 00:45:21;;;;;;;;;;;5.60;99.90;;;;;;5031817;28;19956;-63
2022/09/21 00:47:50;;;;;;;;;;;5.50;99.90;;;;;;5027087;28;19917;-63
2022/09/21 00:50:18;;;;;;;;;;;5.50;99.90;;;;;;5030440;28;19913;-63
2022/09/21 00:52:46;;;;;;;;;;;5.60;99.90;;;;;;5030748;28;19917;-64
2022/09/21 00:55:18;;;;;;;;;;;5.60;99.90;;;;;;5027533;28;20455;-63
2022/09/21 00:57:44;;;;;;;;;;;5.50;99.90;;;;;;5024012;28;19924;-64
2022/09/21 01:00:10;;;;;;;;;;;5.60;99.90;;;;;;5026457;28;19910;-63
2022/09/21 01:02:36;;;;;;;;;;;5.60;99.90;;;;;;5033561;28;19909;-63
2022/09/21 01:05:03;;;;;;;;;;;5.50;99.90;;;;;;5031158;28;20054;-63
2022/09/21 01:07:31;;;;;;;;;;;5.50;99.90;;;;;;5026915;28;20332;-63
2022/09/21 01:09:58;;;;;;;;;;;5.60;99.90;;;;;;5025121;28;19932;-63
2022/09/21 01:12:38;;;;;;;;;;;5.60;99.90;;;;;;5032120;28;20319;-63
2022/09/21 01:15:10;;;;;;;;;;;5.50;99.90;;;;;;5030751;28;19913;-63
2022/09/21 01:17:48;;;;;;;;;;;5.40;99.90;;;;;;5030610;28;19909;-63
2022/09/21 01:20:14;;;;;;;;;;;5.30;99.90;;;;;;5027064;28;19920;-63
2022/09/21 01:22:46;;;;;;;;;;;5.30;99.90;;;;;;5023435;28;20365;-63
2022/09/21 01:25:44;;;;;;;;;;;5.40;99.90;;;;;;5029535;28;19909;-63
2022/09/21 01:28:10;;;;;;;;;;;5.40;99.90;;;;;;5016935;28;19948;-63
2022/09/21 01:30:37;;;;;;;;;;;5.40;99.90;;;;;;5026795;28;20367;-63
2022/09/21 01:33:09;;;;;;;;;;;5.30;99.90;;;;;;5036859;28;20276;-63
2022/09/21 01:35:37;;;;;;;;;;;5.30;99.90;;;;;;5032406;28;19913;-64
2022/09/21 01:38:05;;;;;;;;;;;5.20;99.90;;;;;;5043745;28;20109;-63
2022/09/21 01:40:33;;;;;;;;;;;5.30;99.90;;;;;;5029051;28;19909;-63
2022/09/21 01:43:00;;;;;;;;;;;5.20;99.90;;;;;;5025408;28;20358;-63
2022/09/21 01:45:29;;;;;;;;;;;5.10;99.90;;;;;;5030640;28;19983;-63
2022/09/21 01:47:56;;;;;;;;;;;5.10;99.90;;;;;;5027822;28;19913;-63
2022/09/21 01:50:21;;;;;;;;;;;5.20;99.90;;;;;;5030911;28;19940;-63
2022/09/21 01:52:58;;;;;;;;;;;5.30;99.90;;;;;;5033159;28;20385;-63
2022/09/21 01:55:27;;;;;;;;;;;5.10;99.90;;;;;;5028561;28;19913;-63
2022/09/21 01:57:52;;;;;;;;;;;5.00;99.90;;;;;;5023003;28;19909;-63
2022/09/21 02:00:18;;;;;;;;;;;5.00;99.90;;;;;;5031207;28;19916;-63
2022/09/21 02:02:47;;;;;;;;;;;5.00;99.90;;;;;;5032612;28;19913;-63
2022/09/21 02:05:15;;;;;;;;;;;5.10;99.90;;;;;;5028663;28;19921;-63
2022/09/21 02:07:41;;;;;;;;;;;5.10;99.90;;;;;;5025712;28;19944;-63
2022/09/21 02:10:08;;;;;;;;;;;5.20;99.90;;;;;;5024160;28;20188;-63
2022/09/21 02:12:33;;;;;;;;;;;5.20;99.90;;;;;;5028478;28;20412;-64
2022/09/21 02:15:00;;;;;;;;;;;5.20;99.90;;;;;;5032475;28;19923;-63
2022/09/21 02:17:33;;;;;;;;;;;5.20;99.90;;;;;;5044866;28;19909;-63
2022/09/21 02:20:02;;;;;;;;;;;5.00;99.90;;;;;;5025258;28;20008;-63
2022/09/21 02:22:36;;;;;;;;;;;5.00;99.90;;;;;;5030350;28;19913;-63
2022/09/21 02:25:08;;;;;;;;;;;5.00;99.90;;;;;;5032050;28;20419;-63
2022/09/21 02:27:52;;;;;;;;;;;5.10;99.90;;;;;;5026787;28;19917;-63
2022/09/21 02:30:19;;;;;;;;;;;5.30;99.90;;;;;;5024331;28;19914;-63
2022/09/21 02:32:45;;;;;;;;;;;5.40;99.90;;;;;;5029485;28;19924;-64
2022/09/21 02:35:30;;;;;;;;;;;5.30;99.90;;;;;;5030055;28;19913;-63
2022/09/21 02:38:14;;;;;;;;;;;5.20;99.90;;;;;;5030564;28;19914;-63
2022/09/21 02:40:52;;;;;;;;;;;5.20;99.90;;;;;;5028252;28;19909;-63
2022/09/21 02:43:21;;;;;;;;;;;5.20;99.90;;;;;;5026931;28;19916;-63
2022/09/21 02:45:55;;;;;;;;;;;5.10;99.90;;;;;;5029811;28;20369;-64
2022/09/21 02:48:40;;;;;;;;;;;5.20;99.90;;;;;;5027629;28;19920;-64
2022/09/21 02:51:09;;;;;;;;;;;5.20;99.90;;;;;;5021976;28;20353;-63
2022/09/21 02:53:36;;;;;;;;;;;5.30;99.90;;;;;;5024974;28;20171;-63
2022/09/21 02:56:05;;;;;;;;;;;5.20;99.90;;;;;;5022630;28;19909;-63
2022/09/21 02:58:34;;;;;;;;;;;5.10;99.90;;;;;;5024206;28;19918;-63
2022/09/21 03:01:00;;;;;;;;;;;5.10;99.90;;;;;;5033850;28;19920;-63
2022/09/21 03:03:25;;;;;;;;;;;5.10;99.90;;;;;;5032794;28;20281;-63
2022/09/21 03:05:52;;;;;;;;;;;5.10;99.90;;;;;;5030872;28;19999;-63
2022/09/21 03:08:17;;;;;;;;;;;5.10;99.90;;;;;;5042686;28;19925;-63
2022/09/21 03:10:43;;;;;;;;;;;5.10;99.90;;;;;;5030720;28;19914;-63
2022/09/21 03:13:09;;;;;;;;;;;5.00;99.90;;;;;;5027601;28;19913;-63
2022/09/21 03:15:35;;;;;;;;;;;5.00;99.90;;;;;;5025965;28;19910;-64
2022/09/21 03:18:03;;;;;;;;;;;5.00;99.90;;;;;;5025788;28;19916;-63
2022/09/21 03:20:31;;;;;;;;;;;4.90;99.90;;;;;;5028875;28;20453;-63
2022/09/21 03:22:57;;;;;;;;;;;4.80;99.90;;;;;;5034713;28;19916;-64
2022/09/21 03:25:22;;;;;;;;;;;4.80;99.90;;;;;;5031577;28;19909;-63
2022/09/21 03:27:48;;;;;;;;;;;4.80;99.90;;;;;;5029653;28;19955;-63
2022/09/21 03:30:13;;;;;;;;;;;4.80;99.90;;;;;;5024851;28;19913;-63
2022/09/21 03:32:38;;;;;;;;;;;4.80;99.90;;;;;;5025473;28;20324;-64
2022/09/21 03:35:04;;;;;;;;;;;4.80;99.90;;;;;;5029386;28;19917;-64
2022/09/21 03:37:30;;;;;;;;;;;4.80;99.90;;;;;;5028693;28;19924;-63
2022/09/21 03:39:55;;;;;;;;;;;4.90;99.90;;;;;;5027476;28;20012;-64
2022/09/21 03:42:21;;;;;;;;;;;4.80;99.90;;;;;;5015388;28;19925;-63
2022/09/21 03:44:46;;;;;;;;;;;4.80;99.90;;;;;;5033129;28;19909;-64
2022/09/21 03:47:12;;;;;;;;;;;4.90;99.90;;;;;;5050034;28;19909;-63
2022/09/21 03:49:37;;;;;;;;;;;4.90;99.90;;;;;;5032308;28;19949;-63
2022/09/21 03:52:03;;;;;;;;;;;4.80;99.90;;;;;;5034033;28;20012;-63
2022/09/21 03:54:28;;;;;;;;;;;4.80;99.90;;;;;;5029347;28;19916;-63
2022/09/21 03:56:54;;;;;;;;;;;4.80;99.90;;;;;;5033160;28;19933;-63
2022/09/21 03:59:19;;;;;;;;;;;4.60;99.90;;;;;;5030188;28;20012;-64
2022/09/21 04:01:45;;;;;;;;;;;4.80;99.90;;;;;;5031845;28;19921;-64
2022/09/21 04:04:10;;;;;;;;;;;4.70;99.90;;;;;;5032686;28;19996;-63
2022/09/21 04:06:36;;;;;;;;;;;4.80;99.90;;;;;;5035220;28;20256;-64
2022/09/21 04:09:02;;;;;;;;;;;4.70;99.90;;;;;;5033590;28;19913;-63
2022/09/21 04:11:28;;;;;;;;;;;4.80;99.90;;;;;;5034834;28;19910;-64
2022/09/21 04:13:57;;;;;;;;;;;4.70;99.90;;;;;;5041795;28;19943;-64
2022/09/21 04:16:23;;;;;;;;;;;4.80;99.90;;;;;;5032096;28;19916;-63
2022/09/21 04:18:49;;;;;;;;;;;4.60;99.90;;;;;;5026259;28;20003;-64
2022/09/21 04:21:18;;;;;;;;;;;4.60;99.90;;;;;;5032699;28;19975;-64
2022/09/21 04:23:44;;;;;;;;;;;4.50;99.90;;;;;;5029719;28;19927;-63
2022/09/21 04:26:20;;;;;;;;;;;4.50;99.90;;;;;;5035611;28;19909;-63
2022/09/21 04:28:45;;;;;;;;;;;4.50;99.90;;;;;;5034178;28;20361;-63
2022/09/21 04:31:11;;;;;;;;;;;4.50;99.90;;;;;;5036042;28;19995;-64
2022/09/21 04:33:36;;;;;;;;;;;4.50;99.90;;;;;;5031489;28;19913;-63
2022/09/21 04:36:02;;;;;;;;;;;4.40;99.90;;;;;;5032220;28;20284;-63
2022/09/21 04:38:29;;;;;;;;;;;4.30;99.90;;;;;;5027209;28;19959;-63
2022/09/21 04:40:56;;;;;;;;;;;4.40;99.90;;;;;;5032233;28;20000;-63
2022/09/21 04:43:22;;;;;;;;;;;4.30;99.90;;;;;;5035491;28;20033;-64
2022/09/21 04:45:47;;;;;;;;;;;4.30;99.90;;;;;;5032002;28;19910;-63
2022/09/21 04:48:13;;;;;;;;;;;4.20;99.90;;;;;;5027328;28;20492;-63
2022/09/21 04:50:38;;;;;;;;;;;4.10;99.90;;;;;;5031545;28;19920;-63
2022/09/21 04:53:04;;;;;;;;;;;4.10;99.90;;;;;;5034532;28;20340;-63
2022/09/21 04:55:30;;;;;;;;;;;4.20;99.90;;;;;;5031671;28;20019;-64
2022/09/21 04:57:56;;;;;;;;;;;4.20;99.90;;;;;;5030893;28;20008;-63
2022/09/21 05:00:21;;;;;;;;;;;4.30;99.90;;;;;;5031607;28;19932;-63
2022/09/21 05:02:47;;;;;;;;;;;4.30;99.90;;;;;;5027141;28;19909;-63
2022/09/21 05:05:12;;;;;;;;;;;4.40;99.90;;;;;;5028770;28;19921;-64
2022/09/21 05:07:38;;;;;;;;;;;4.40;99.90;;;;;;5030944;28;19956;-63
2022/09/21 05:10:04;;;;;;;;;;;4.30;99.90;;;;;;5026382;28;20028;-63
2022/09/21 05:12:33;;;;;;;;;;;4.30;99.90;;;;;;5022644;28;19952;-63
2022/09/21 05:14:59;;;;;;;;;;;4.30;99.90;;;;;;5029138;28;19916;-63
2022/09/21 05:17:24;;;;;;;;;;;4.30;99.90;;;;;;5033511;28;19917;-63
2022/09/21 05:19:50;;;;;;;;;;;4.30;99.90;;;;;;5022881;28;20000;-63
2022/09/21 05:22:16;;;;;;;;;;;4.30;99.90;;;;;;5022100;28;19910;-64
2022/09/21 05:24:42;;;;;;;;;;;4.40;99.90;;;;;;5022059;28;19909;-63
2022/09/21 05:27:07;;;;;;;;;;;4.30;99.90;;;;;;5027854;28;20293;-63
2022/09/21 05:29:33;;;;;;;;;;;4.40;99.90;;;;;;5025941;28;20104;-63
2022/09/21 05:32:06;;;;;;;;;;;4.60;99.90;;;;;;5030791;28;19916;-64
2022/09/21 05:34:41;;;;;;;;;;;4.60;99.90;;;;;;5027377;28;19913;-64
2022/09/21 05:37:18;;;;;;;;;;;4.70;99.90;;;;;;5029121;28;19943;-63
2022/09/21 05:39:44;;;;;;;;;;;4.70;99.90;;;;;;5028383;28;19913;-64
2022/09/21 05:42:09;;;;;;;;;;;4.80;99.90;;;;;;5028791;28;19913;-64
2022/09/21 05:44:35;;;;;;;;;;;4.70;99.90;;;;;;5027837;28;19913;-64
2022/09/21 05:47:12;;;;;;;;;;;4.70;99.90;;;;;;5030286;28;20297;-64
2022/09/21 05:49:53;;;;;;;;;;;4.70;99.90;;;;;;5045670;28;19920;-64
2022/09/21 05:52:32;;;;;;;;;;;4.70;99.90;;;;;;5029841;28;19909;-64
2022/09/21 05:55:24;;;;;;;;;;;4.70;99.90;;;;;;5026805;28;20418;-64
2022/09/21 05:57:54;;;;;;;;;;;4.80;99.90;;;;;;5027898;28;20380;-64
2022/09/21 06:00:21;;;;;;;;;;;4.90;99.90;;;;;;5029085;28;20296;-64
2022/09/21 06:03:05;;;;;;;;;;;5.00;99.90;;;;;;5030185;28;19925;-63
2022/09/21 06:05:30;;;;;;;;;;;5.00;99.90;;;;;;5030967;28;20020;-63
2022/09/21 06:07:56;;;;;;;;;;;5.00;99.90;;;;;;5026643;28;19929;-63
2022/09/21 06:10:23;;;;;;;;;;;5.10;99.90;;;;;;5028921;28;19913;-64
2022/09/21 06:12:49;;;;;;;;;;;;;;;;;;5027535;28;19909;-62
2022/09/21 06:17:38;;;;;;;;;;;8.90;99.90;;;;;;5091759;27;19920;-71
2022/09/21 06:20:05;;;;;;;;;;;7.80;99.90;;;;;;5116669;28;20314;-70
2022/09/21 06:22:31;;;;;;;;;;;7.10;99.90;;;;;;5080391;28;19931;-70
2022/09/21 06:24:56;;;;;;;;;;;6.60;99.90;;;;;;5084798;28;19912;-70
2022/09/21 06:27:22;;;;;;;;;;;6.50;99.90;;;;;;5087168;28;19962;-70
2022/09/21 06:29:47;;;;;;;;;;;6.50;99.90;;;;;;5081566;28;20304;-70
2022/09/21 06:32:13;;;;;;;;;;;6.40;99.90;;;;;;5085860;28;20311;-70
2022/09/21 06:34:38;;;;;;;;;;;6.40;99.90;;;;;;5086372;28;19931;-70
2022/09/21 06:37:04;;;;;;;;;;;6.40;99.90;;;;;;5082947;28;19912;-70
2022/09/21 06:39:29;;;;;;;;;;;6.40;99.90;;;;;;5083106;28;20298;-70
2022/09/21 06:41:55;;;;;;;;;;;6.30;99.90;;;;;;5085496;28;20576;-70
2022/09/21 06:44:20;;;;;;;;;;;6.40;99.90;;;;;;5085839;28;19940;-70
2022/09/21 06:46:46;;;;;;;;;;;6.40;99.90;;;;;;5081820;28;19955;-70
2022/09/21 06:49:11;;;;;;;;;;;6.50;99.90;;;;;;5085331;28;19943;-70
2022/09/21 06:51:37;;;;;;;;;;;6.60;99.90;;;;;;5084241;28;19916;-68
2022/09/21 06:54:02;;;;;;;;;;;6.70;99.90;;;;;;5086536;28;19937;-68
2022/09/21 06:56:28;;;;;;;;;;;6.90;99.90;;;;;;5086872;28;20504;-68
2022/09/21 06:58:54;;;;;;;;;;;7.00;99.90;;;;;;5084134;28;19912;-68
2022/09/21 07:01:19;;;;;;;;;;;7.10;99.90;;;;;;5091370;28;19946;-68
2022/09/21 07:03:48;;;;;;;;;;;7.40;99.90;;;;;;5086704;28;19949;-69
2022/09/21 07:06:14;;;;;;;;;;;7.50;99.90;;;;;;5084512;28;19947;-69
2022/09/21 07:08:41;;;;;;;;;;;7.60;99.90;;;;;;5081392;28;19912;-69
2022/09/21 07:11:06;;;;;;;;;;;7.70;99.90;;;;;;5086349;28;19931;-69
2022/09/21 07:13:32;;;;;;;;;;;7.80;99.90;;;;;;5085354;28;19931;-69
2022/09/21 07:15:57;;;;;;;;;;;7.80;99.90;;;;;;5086232;28;20460;-69
2022/09/21 07:18:23;;;;;;;;;;;8.00;99.90;;;;;;5082175;28;20505;-69
2022/09/21 07:20:48;;;;;;;;;;;8.20;99.90;;;;;;5083248;28;19923;-68
2022/09/21 07:23:15;;;;;;;;;;;8.30;99.90;;;;;;5085348;28;19984;-68
2022/09/21 07:25:44;;;;;;;;;;;8.50;99.90;;;;;;5085528;28;20398;-68
2022/09/21 07:28:10;;;;;;;;;;;8.70;99.90;;;;;;5076961;28;19924;-69
2022/09/21 07:30:37;;;;;;;;;;;8.80;99.90;;;;;;5065226;28;20284;-69
2022/09/21 07:33:02;;;;;;;;;;;8.80;99.90;;;;;;5073890;28;20008;-69
2022/09/21 07:35:28;;;;;;;;;;;9.00;99.90;;;;;;5072096;28;20714;-69
2022/09/21 07:37:56;;;;;;;;;;;9.10;99.90;;;;;;5065585;28;19913;-69
2022/09/21 07:40:22;;;;;;;;;;;9.20;99.90;;;;;;5071531;28;19921;-69
2022/09/21 07:42:48;;;;;;;;;;;9.30;99.90;;;;;;5066825;28;19916;-69
2022/09/21 07:45:14;;;;;;;;;;;9.40;99.90;;;;;;5071746;28;20054;-69
2022/09/21 07:47:39;;;;;;;;;;;9.50;99.90;;;;;;5069865;28;19954;-69
2022/09/21 07:50:05;;;;;;;;;;;9.60;99.90;;;;;;5071811;28;19922;-69
2022/09/21 07:52:30;;;;;;;;;;;9.70;99.90;;;;;;5074933;28;19965;-68
2022/09/21 07:54:56;;;;;;;;;;;9.80;99.90;;;;;;5075333;28;19917;-68
2022/09/21 08:00:05;;;;;;;;;;;10.00;99.90;;;;;;5067614;28;19923;-68
2022/09/21 08:02:31;;;;;;;;;;;10.10;99.90;;;;;;5074267;28;19946;-68
2022/09/21 08:04:56;;;;;;;;;;;10.30;99.90;;;;;;5070561;28;20006;-68
2022/09/21 08:07:22;;;;;;;;;;;10.50;99.90;;;;;;5068619;28;19912;-69
2022/09/21 08:09:49;;;;;;;;;;;10.60;99.90;;;;;;5070110;28;20070;-69
2022/09/21 08:12:17;;;;;;;;;;;10.70;99.90;;;;;;5062904;28;19919;-69
2022/09/21 08:14:43;;;;;;;;;;;10.70;99.90;;;;;;5071127;28;19916;-69
2022/09/21 08:17:09;;;;;;;;;;;10.90;99.90;;;;;;5067893;28;20023;-68
2022/09/21 08:19:35;;;;;;;;;;;11.10;99.90;;;;;;5070686;28;19942;-69
2022/09/21 08:22:00;;;;;;;;;;;11.50;99.90;;;;;;5070025;28;19920;-69
2022/09/21 08:24:26;;;;;;;;;;;12.00;99.90;;;;;;5062860;28;19913;-69
2022/09/21 08:26:52;;;;;;;;;;;12.30;99.90;;;;;;5068397;28;19961;-69
2022/09/21 08:29:17;;;;;;;;;;;12.80;99.90;;;;;;5066575;28;19923;-69
2022/09/21 08:31:44;;;;;;;;;;;13.20;99.90;;;;;;5070494;28;19967;-68
2022/09/21 08:34:09;;;;;;;;;;;13.40;99.90;;;;;;5069219;28;20006;-68
2022/09/21 09:59:05;;;;;;;;;;;;;;;;;;4998095;27;19924;-57
2022/09/21 10:01:31;;;;;;;;;;;;;;;;;;4940007;27;20012;-62
2022/09/21 10:03:57;;;;;;;;;;;;;;;;;;5062809;28;20033;-62
2022/09/21 10:06:23;;;;;;;;;;;;;;;;;;5046209;28;19920;-61
2022/09/21 10:08:50;;;;;;;;;;;;;;;;;;5041703;28;19925;-61
2022/09/21 10:11:16;;;;;;;;;;;;;;;;;;5049083;28;19996;-61
2022/09/21 10:13:42;;;;;;;;;;;;;;;;;;5046374;28;20428;-62
2022/09/21 10:16:08;;;;;;;;;;;;;;;;;;5047632;28;19983;-61
2022/09/21 10:18:34;;;;;;;;;;;;;;;;;;5040921;28;20280;-62
2022/09/21 10:20:59;;;;;;;;;;;;;;;;;;5049250;28;19916;-61
2022/09/21 10:23:25;;;;;;;;;;;;;;;;;;5046963;28;20284;-62
2022/09/21 10:25:51;;;;;;;;;;;;;;;;;;5046155;28;20403;-61
2022/09/21 10:28:17;;;;;;;;;;;;;;;;;;5047944;28;19922;-61
2022/09/21 10:30:43;;;;;;;;;;;;;;;;;;5048211;28;19948;-62
2022/09/21 10:33:09;;;;;;;;;;;;;;;;;;5052804;28;19913;-62
2022/09/21 10:35:35;;;;;;;;;;;;;;;;;;5046999;28;19913;-62
2022/09/21 10:38:01;;;;;;;;;;;;;;;;;;4924830;28;20292;-62
2022/09/21 10:49:20;;;;;;;;;;;23.70;99.90;;;;;;5137721;27;19915;-66
2022/09/21 10:51:46;;;;;;;;;;;20.20;99.90;;;;;;5125992;28;19912;-66
2022/09/21 10:54:18;;;;;;;;;;;19.50;99.90;;;;;;5124859;28;20522;-66
2022/09/21 10:56:54;;;;;;;;;;;19.10;99.90;;;;;;5115840;28;19923;-66
2022/09/21 11:02:30;;;;;;;;;;;19.20;99.90;;;;;;5081162;27;19916;-69
2022/09/21 11:05:15;;;;;;;;;;;18.60;96.60;;;;;;5072702;28;19982;-69
2022/09/21 11:07:51;;;;;;;;;;;18.90;99.90;;;;;;5075681;28;19924;-70
2022/09/21 11:10:19;;;;;;;;;;;18.40;96.30;;;;;;5075437;28;19913;-70
2022/09/21 11:12:52;;;;;;;;;;;17.80;97.80;;;;;;5071606;28;19923;-70
2022/09/21 11:15:53;;;;;;;;;;;17.30;99.00;;;;;;5070633;28;19915;-70
2022/09/21 11:20:23;;;;;;;;;;;17.20;99.90;;;;;;5074041;27;19913;-70
2022/09/21 11:22:52;;;;;;;;;;;18.30;99.90;;;;;;4953576;28;19936;-70
2022/09/21 11:25:23;;;;;;;;;;;18.10;98.80;;;;;;5057562;28;20000;-70
2022/09/21 11:27:55;;;;;;;;;;;18.60;97.80;;;;;;5038635;28;19921;-70
2022/09/21 11:30:20;;;;;;;;;;;19.60;96.10;;;;;;5044190;28;19909;-71
2022/09/21 11:32:52;;;;;;;;;;;19.80;95.80;;;;;;5031584;28;19918;-71
2022/09/21 11:35:25;;;;;;;;;;;21.90;95.40;;;;;;5029128;28;19935;-71
2022/09/21 11:37:54;;;;;;;;;;;23.60;90.70;;;;;;5027701;28;19996;-71
2022/09/21 11:40:40;;;;;;;;;;;22.70;88.80;;;;;;5023801;28;20012;-71
2022/09/21 11:43:28;;;;;;;;;;;23.80;87.10;;;;;;4980989;28;19917;-71
2022/09/21 11:45:57;;;;;;;;;;;;;;;;;;5039349;28;19913;-71
2022/09/21 11:48:23;;;;;;;;;;;;;;;;;;5024343;28;19940;-71
2022/09/21 11:51:07;;;;;;;;;;;23.80;79.70;;;;;;5022796;28;19921;-71
2022/09/21 11:53:32;;;;;;;;;;;22.70;90.90;;;;;;5029066;28;19992;-71
2022/09/21 11:55:58;;;;;;;;;;;;;;;;;;5003822;28;20218;-71
2022/09/21 11:58:24;;;;;;;;;;;;;;;;;;5039297;28;20365;-71
2022/09/21 12:00:59;;;;;;;;;;;24.90;89.70;;;;;;5023496;28;19914;-71
2022/09/21 12:03:25;;;;;;;;;;;;;;;;;;5025212;28;19971;-71
2022/09/21 12:05:51;;;;;;;;;;;;;;;;;;5030029;28;19960;-71
2022/09/21 12:08:17;;;;;;;;;;;;;;;;;;5033055;28;19914;-71
2022/09/21 12:10:43;;;;;;;;;;;;;;;;;;5031115;28;20372;-71
2022/09/21 12:13:08;;;;;;;;;;;;;;;;;;5028227;28;19917;-71
2022/09/21 12:15:34;;;;;;;;;;;;;;;;;;5048342;28;19936;-71
2022/09/21 12:18:00;;;;;;;;;;;;;;;;;;5023868;28;20023;-71
2022/09/21 12:20:26;;;;;;;;;;;;;;;;;;5025886;28;19978;-71
2022/09/21 12:22:52;;;;;;;;;;;;;;;;;;5040536;28;20323;-71
2022/09/21 12:25:18;;;;;;;;;;;;;;;;;;5026695;28;19910;-71
2022/09/21 12:27:58;;;;;;;;;;;24.40;85.60;;;;;;5038607;28;20252;-71
2022/09/21 12:30:24;;;;;;;;;;;24.10;85.50;;;;;;5022006;28;19955;-71
2022/09/21 12:32:56;;;;;;;;;;;24.10;82.10;;;;;;5010336;28;20012;-71
2022/09/21 12:35:22;;;;;;;;;;;;;;;;;;5013504;28;19914;-71
2022/09/21 12:37:48;;;;;;;;;;;;;;;;;;5013418;28;19999;-71
2022/09/21 12:40:14;;;;;;;;;;;;;;;;;;5013554;28;19972;-71
2022/09/21 12:42:40;;;;;;;;;;;;;;;;;;5010819;28;20266;-71
2022/09/21 12:45:06;;;;;;;;;;;;;;;;;;5012615;28;19921;-71
2022/09/21 12:47:32;;;;;;;;;;;;;;;;;;5015344;28;20280;-71
2022/09/21 12:49:57;;;;;;;;;;;;;;;;;;5013276;28;19925;-71
2022/09/21 12:52:23;;;;;;;;;;;;;;;;;;5010541;28;19936;-71
2022/09/21 12:54:49;;;;;;;;;;;;;;;;;;4999100;28;19918;-71
2022/09/21 12:57:30;;;;;;;;;;;26.20;78.50;;;;;;5027608;28;19921;-71
2022/09/21 13:00:09;;;;;;;;;;;23.50;79.70;;;;;;5005367;28;19928;-71
2022/09/21 13:02:39;;;;;;;;;;;23.50;78.50;;;;;;5030447;28;19913;-70
2022/09/21 13:05:05;;;;;;;;;;;24.90;75.60;;;;;;5009591;28;19913;-71
2022/09/21 13:07:33;;;;;;;;;;;23.60;75.80;;;;;;5012386;28;19910;-71
2022/09/21 13:09:59;;;;;;;;;;;;;;;;;;5015044;28;19909;-71
2022/09/21 13:12:25;;;;;;;;;;;;;;;;;;5006936;28;20436;-71
2022/09/21 13:14:51;;;;;;;;;;;;;;;;;;5006929;28;19944;-71
2022/09/21 13:17:28;;;;;;;;;;;24.40;75.90;;;;;;5008041;28;19925;-71
2022/09/21 13:20:03;;;;;;;;;;;24.00;77.40;;;;;;5013019;28;19929;-71
2022/09/21 13:22:28;;;;;;;;;;;;;;;;;;5010236;28;19913;-71
2022/09/21 13:24:56;;;;;;;;;;;;;;;;;;5023796;28;19937;-71
2022/09/21 13:27:23;;;;;;;;;;;;;;;;;;5022538;28;20000;-71
2022/09/21 13:29:49;;;;;;;;;;;;;;;;;;5019526;28;19921;-71
2022/09/21 13:32:15;;;;;;;;;;;;;;;;;;5009661;28;20293;-71
2022/09/21 13:34:41;;;;;;;;;;;23.20;72.00;;;;;;5029369;28;19917;-71
2022/09/21 13:37:07;;;;;;;;;;;24.30;73.50;;;;;;5011428;28;19917;-71
2022/09/21 13:39:32;;;;;;;;;;;25.20;73.00;;;;;;5029716;28;20300;-71
2022/09/21 13:42:06;;;;;;;;;;;24.60;73.90;;;;;;5007404;28;20008;-71
2022/09/21 13:44:35;;;;;;;;;;;24.90;68.90;;;;;;5007635;28;19917;-71
2022/09/21 13:47:01;;;;;;;;;;;;;;;;;;5004722;28;20021;-71
2022/09/21 13:49:37;;;;;;;;;;;22.30;70.60;;;;;;5012322;28;19922;-71
2022/09/21 13:52:03;;;;;;;;;;;;;;;;;;5015036;28;19910;-71
2022/09/21 13:54:47;;;;;;;;;;;23.00;72.50;;;;;;5012144;28;20361;-71
2022/09/21 13:57:15;;;;;;;;;;;23.40;74.70;;;;;;5008333;28;20376;-71
2022/09/21 13:59:42;;;;;;;;;;;25.80;71.90;;;;;;5006498;28;19988;-71
2022/09/21 14:02:08;;;;;;;;;;;;;;;;;;5016757;28;19909;-71
2022/09/21 14:04:36;;;;;;;;;;;;;;;;;;5012122;28;20269;-71
2022/09/21 14:07:01;;;;;;;;;;;;;;;;;;5024034;28;20058;-71
2022/09/21 14:09:27;;;;;;;;;;;;;;;;;;5024391;28;19918;-71
2022/09/21 14:11:53;;;;;;;;;;;;;;;;;;5013208;28;19914;-71
2022/09/21 14:14:19;;;;;;;;;;;;;;;;;;5024286;28;19913;-71
2022/09/21 14:16:46;;;;;;;;;;;;;;;;;;5029065;28;19959;-71
2022/09/21 14:19:12;;;;;;;;;;;;;;;;;;5018238;28;19925;-71
2022/09/21 14:21:38;;;;;;;;;;;;;;;;;;5022912;28;20358;-71
2022/09/21 14:24:04;;;;;;;;;;;;;;;;;;5026381;28;19922;-70
2022/09/21 14:26:30;;;;;;;;;;;;;;;;;;5020090;28;19917;-70
2022/09/21 14:28:56;;;;;;;;;;;;;;;;;;5026075;28;19936;-70
2022/09/21 14:31:22;;;;;;;;;;;;;;;;;;5027551;28;20422;-70
2022/09/21 14:33:48;;;;;;;;;;;;;;;;;;5029878;28;19959;-70
2022/09/21 14:36:14;;;;;;;;;;;;;;;;;;5037251;28;19917;-70
2022/09/21 14:38:40;;;;;;;;;;;;;;;;;;5019543;28;19960;-70
2022/09/21 14:41:06;;;;;;;;;;;;;;;;;;5020032;28;19944;-70
2022/09/21 14:43:33;;;;;;;;;;;;;;;;;;5017164;28;19992;-70
2022/09/21 14:46:00;;;;;;;;;;;;;;;;;;5020483;28;20280;-70
2022/09/21 14:48:29;;;;;;;;;;;;;;;;;;5020393;28;20277;-70
2022/09/21 14:50:55;;;;;;;;;;;;;;;;;;5029123;28;19959;-70
2022/09/21 14:53:25;;;;;;;;;;;;;;;;;;5025915;28;20000;-70
2022/09/21 14:55:51;;;;;;;;;;;;;;;;;;5029939;28;19909;-70
2022/09/21 14:58:17;;;;;;;;;;;;;;;;;;5031777;28;19951;-70
2022/09/21 15:00:43;;;;;;;;;;;;;;;;;;5023954;28;19910;-70
2022/09/21 15:03:09;;;;;;;;;;;;;;;;;;5010169;28;20348;-69
2022/09/21 15:05:35;;;;;;;;;;;;;;;;;;5015184;28;20291;-69
2022/09/21 15:10:57;;;;;;;;;;;21.60;85.30;;;;;;5011863;28;19917;-71
2022/09/21 15:13:31;;;;;;;;;;;21.80;86.00;;;;;;5007028;28;20005;-71
2022/09/21 15:15:57;;;;;;;;;;;;;;;;;;5009370;28;20005;-70
2022/09/21 15:18:24;;;;;;;;;;;21.30;77.70;;;;;;5012242;28;20012;-70
2022/09/21 15:20:50;;;;;;;;;;;;;;;;;;5010867;28;19919;-70
2022/09/21 15:23:16;;;;;;;;;;;;;;;;;;5011609;28;19997;-70
2022/09/21 15:25:42;;;;;;;;;;;;;;;;;;5011760;28;19920;-70
2022/09/21 15:28:08;;;;;;;;;;;;;;;;;;5010282;28;20350;-70
2022/09/21 15:30:34;;;;;;;;;;;;;;;;;;5008337;28;20076;-70
2022/09/21 15:33:00;;;;;;;;;;;;;;;;;;5016930;28;19945;-70
2022/09/21 15:35:26;;;;;;;;;;;;;;;;;;5027677;28;20426;-70
2022/09/21 15:37:52;;;;;;;;;;;;;;;;;;5025963;28;19917;-70
2022/09/21 15:40:19;;;;;;;;;;;;;;;;;;5029918;28;19913;-70
2022/09/21 15:42:45;;;;;;;;;;;;;;;;;;5009750;28;19917;-69
2022/09/21 15:45:11;;;;;;;;;;;;;;;;;;5001452;28;19917;-69
2022/09/21 15:47:36;;;;;;;;;;;;;;;;;;5008660;28;19910;-70
2022/09/21 15:50:02;;;;;;;;;;;;;;;;;;5005066;28;19916;-71
2022/09/21 15:52:28;;;;;;;;;;;;;;;;;;5012450;28;20345;-69
2022/09/21 15:54:55;;;;;;;;;;;;;;;;;;5005707;28;19917;-69
2022/09/21 15:57:21;;;;;;;;;;;;;;;;;;5022162;28;19909;-69
2022/09/21 15:59:47;;;;;;;;;;;;;;;;;;5024839;28;20396;-69
2022/09/21 16:02:12;;;;;;;;;;;;;;;;;;5018281;28;19936;-69
2022/09/21 16:04:38;;;;;;;;;;;;;;;;;;5031533;28;20357;-69
2022/09/21 16:07:05;;;;;;;;;;;;;;;;;;5010336;28;19992;-69
2022/09/21 16:09:31;;;;;;;;;;;;;;;;;;5020399;28;20419;-69
2022/09/21 16:11:57;;;;;;;;;;;;;;;;;;5041578;28;20027;-69
2022/09/21 16:17:08;;;;;;;;;;;;;;;;;;5014386;28;19920;-69
2022/09/21 16:19:33;;;;;;;;;;;;;;;;;;5019415;28;20024;-69
2022/09/21 16:21:59;;;;;;;;;;;;;;;;;;5040583;28;19923;-69
2022/09/21 16:24:25;;;;;;;;;;;;;;;;;;5016799;28;19916;-69
2022/09/21 16:26:51;;;;;;;;;;;;;;;;;;5024290;28;19920;-69
2022/09/21 16:29:17;;;;;;;;;;;;;;;;;;5030891;28;19914;-69
2022/09/21 16:31:43;;;;;;;;;;;;;;;;;;5012871;28;20285;-69
2022/09/21 16:34:09;;;;;;;;;;;;;;;;;;5011448;28;20016;-69
2022/09/21 16:36:36;;;;;;;;;;;;;;;;;;5016609;28;19948;-69
2022/09/21 16:39:05;;;;;;;;;;;;;;;;;;5009630;28;19944;-69
2022/09/21 16:41:31;;;;;;;;;;;;;;;;;;5011739;28;19909;-69
2022/09/21 16:43:57;;;;;;;;;;;;;;;;;;5013432;28;19953;-69
2022/09/21 16:46:25;;;;;;;;;;;;;;;;;;5032168;28;19920;-69
2022/09/21 16:48:54;;;;;;;;;;;;;;;;;;5032317;28;19913;-69
2022/09/21 16:51:23;;;;;;;;;;;;;;;;;;5038593;28;19922;-69
2022/09/21 16:53:49;;;;;;;;;;;;;;;;;;5018844;28;20039;-69
2022/09/21 16:56:15;;;;;;;;;;;;;;;;;;5010835;28;20333;-70
2022/09/21 16:58:44;;;;;;;;;;;;;;;;;;5024289;28;19917;-69